Time;durP1;ratioP1;P1;durP2;ratioP2;P2;SDS_P1;SDS_P2;PMS_P1;PMS_P2;Temp;Humidity;BMP_temperature;BMP_pressure;BME280_temperature;BME280_humidity;BME280_pressure;Samples;Min_cycle;Max_cycle;Signal;HPM_P1;HPM_P2
2022/10/09 00:01:05;;;;;;;7.33;3.43;;;10.00;1.00;;;;;;4994875;28;20953;-90
2022/10/09 00:03:33;;;;;;;5.97;3.40;;;9.90;1.00;;;;;;5007401;28;20238;-91
2022/10/09 00:06:00;;;;;;;7.77;3.73;;;9.90;1.00;;;;;;4990541;28;20205;-91
2022/10/09 00:08:27;;;;;;;9.03;3.33;;;9.90;99.90;;;;;;4998665;28;20247;-90
2022/10/09 00:10:54;;;;;;;4.83;2.90;;;10.00;99.90;;;;;;4993567;28;20228;-90
2022/10/09 00:13:21;;;;;;;6.03;4.07;;;10.00;99.90;;;;;;4987952;28;20204;-91
2022/10/09 00:15:48;;;;;;;4.67;3.20;;;9.90;1.00;;;;;;5011175;28;20219;-91
2022/10/09 00:18:17;;;;;;;5.80;3.13;;;9.90;1.00;;;;;;4981063;28;20219;-88
2022/10/09 00:20:45;;;;;;;4.80;2.97;;;9.70;1.00;;;;;;4992770;28;20207;-91
2022/10/09 00:23:15;;;;;;;7.20;3.30;;;9.80;1.00;;;;;;4980215;28;20210;-92
2022/10/09 00:25:54;;;;;;;9.50;3.70;;;9.80;99.90;;;;;;4985390;28;20206;-92
2022/10/09 00:28:24;;;;;;;7.50;3.43;;;9.80;99.90;;;;;;4997374;28;20215;-92
2022/10/09 00:30:52;;;;;;;6.93;3.80;;;9.80;1.00;;;;;;4995969;28;20247;-92
2022/10/09 00:33:19;;;;;;;7.30;3.30;;;9.80;1.00;;;;;;4997588;28;20729;-92
2022/10/09 00:35:46;;;;;;;6.40;3.20;;;9.90;1.00;;;;;;4993579;28;20272;-92
2022/10/09 00:38:13;;;;;;;6.10;3.33;;;9.80;99.90;;;;;;4987441;28;20240;-93
2022/10/09 00:40:40;;;;;;;10.33;3.90;;;9.50;99.90;;;;;;4991717;28;20244;-93
2022/10/09 00:43:50;;;;;;;6.53;3.00;;;9.50;99.90;;;;;;4991327;28;20619;-89
2022/10/09 00:46:32;;;;;;;7.47;2.97;;;9.60;1.00;;;;;;4996271;28;20219;-94
2022/10/09 00:49:19;;;;;;;8.73;3.60;;;9.60;1.00;;;;;;4995493;28;20246;-93
2022/10/09 00:51:48;;;;;;;5.80;3.23;;;9.50;1.00;;;;;;4999899;28;20209;-86
2022/10/09 00:54:19;;;;;;;5.53;3.50;;;9.60;1.00;;;;;;5004923;28;20241;-88
2022/10/09 00:56:46;;;;;;;5.63;3.10;;;9.60;1.00;;;;;;5006276;28;20194;-87
2022/10/09 00:59:14;;;;;;;3.87;2.70;;;9.60;1.00;;;;;;5023742;28;20278;-94
2022/10/09 01:01:42;;;;;;;5.47;3.30;;;9.60;1.00;;;;;;5003892;28;20208;-91
2022/10/09 01:04:09;;;;;;;5.57;3.10;;;9.60;1.00;;;;;;5002211;28;20196;-92
2022/10/09 01:07:21;;;;;;;7.73;3.27;;;9.50;1.00;;;;;;4996462;28;20236;-89
2022/10/09 01:09:51;;;;;;;4.87;3.20;;;9.60;1.00;;;;;;4988412;28;20306;-92
2022/10/09 01:12:22;;;;;;;8.37;3.13;;;9.50;99.90;;;;;;5004259;28;20268;-90
2022/10/09 01:15:01;;;;;;;6.00;3.30;;;9.40;99.90;;;;;;4996917;28;20218;-90
2022/10/09 01:17:40;;;;;;;4.57;2.90;;;9.30;99.90;;;;;;5009105;28;20207;-91
2022/10/09 01:20:47;;;;;;;3.77;3.20;;;9.30;99.90;;;;;;5008010;28;20675;-92
2022/10/09 01:23:23;;;;;;;4.47;2.90;;;9.40;1.00;;;;;;4991539;28;20213;-88
2022/10/09 01:26:19;;;;;;;6.67;3.10;;;9.40;93.50;;;;;;5003635;28;20750;-88
2022/10/09 01:28:52;;;;;;;8.17;2.80;;;9.40;1.00;;;;;;5001668;28;20210;-90
2022/10/09 01:31:21;;;;;;;8.73;3.57;;;9.40;99.90;;;;;;4990141;28;20256;-92
2022/10/09 01:33:49;;;;;;;7.57;3.23;;;9.30;1.00;;;;;;4994094;28;20205;-92
2022/10/09 01:36:17;;;;;;;9.33;3.70;;;9.20;1.00;;;;;;5000035;28;20229;-91
2022/10/09 01:38:45;;;;;;;5.67;3.60;;;9.30;99.90;;;;;;4991015;28;20317;-90
2022/10/09 01:41:12;;;;;;;7.23;3.60;;;9.20;1.00;;;;;;4981519;28;20222;-93
2022/10/09 01:43:40;;;;;;;5.17;3.40;;;9.20;1.00;;;;;;4986373;28;20296;-91
2022/10/09 01:46:29;;;;;;;6.30;3.27;;;9.30;1.00;;;;;;4990007;28;20215;-92
2022/10/09 01:49:04;;;;;;;6.87;3.53;;;9.30;99.90;;;;;;4995218;28;20655;-92
2022/10/09 01:52:00;;;;;;;7.53;3.80;;;9.20;99.90;;;;;;5003345;28;20213;-91
2022/10/09 01:54:47;;;;;;;6.80;3.23;;;9.20;1.00;;;;;;4989851;28;20202;-92
2022/10/09 01:57:21;;;;;;;7.43;3.70;;;9.20;99.90;;;;;;5016578;28;20201;-92
2022/10/09 01:59:50;;;;;;;7.30;3.70;;;9.30;1.00;;;;;;5003094;28;20225;-91
2022/10/09 02:02:18;;;;;;;4.70;3.47;;;9.20;99.90;;;;;;4993102;28;20217;-91
2022/10/09 02:04:47;;;;;;;6.67;3.93;;;9.20;99.90;;;;;;5004880;28;20554;-93
2022/10/09 02:07:15;;;;;;;5.00;3.37;;;9.20;99.90;;;;;;5001042;28;20211;-88
2022/10/09 02:09:43;;;;;;;5.43;3.57;;;9.20;1.00;;;;;;4994132;28;20218;-91
2022/10/09 02:12:11;;;;;;;5.30;3.37;;;9.20;1.00;;;;;;4996950;28;20282;-92
2022/10/09 02:14:38;;;;;;;7.07;2.90;;;9.10;99.90;;;;;;4993067;28;20206;-92
2022/10/09 02:17:10;;;;;;;7.93;4.47;;;9.00;99.90;;;;;;4995451;28;20293;-92
2022/10/09 02:19:49;;;;;;;12.00;3.73;;;9.00;1.00;;;;;;4995551;28;20244;-93
2022/10/09 02:22:24;;;;;;;9.53;3.80;;;9.00;1.00;;;;;;4989537;28;20212;-92
2022/10/09 02:24:51;;;;;;;6.37;4.13;;;9.00;1.00;;;;;;4993117;28;20200;-92
2022/10/09 02:27:20;;;;;;;8.43;3.40;;;9.00;1.00;;;;;;4989777;28;20329;-92
2022/10/09 02:29:48;;;;;;;5.10;3.20;;;9.00;1.00;;;;;;4990904;28;20219;-91
2022/10/09 02:32:15;;;;;;;8.07;3.20;;;8.90;99.90;;;;;;4992833;28;20243;-92
2022/10/09 02:34:42;;;;;;;8.90;3.90;;;8.90;1.00;;;;;;4990795;28;20207;-94
2022/10/09 02:37:10;;;;;;;5.27;3.23;;;8.90;1.00;;;;;;4994472;28;20228;-93
2022/10/09 02:39:37;;;;;;;6.40;3.53;;;8.90;1.00;;;;;;5000272;28;20236;-93
2022/10/09 02:42:04;;;;;;;7.03;3.80;;;8.80;1.00;;;;;;4992699;28;20206;-91
2022/10/09 02:44:30;;;;;;;5.13;3.57;;;8.80;99.90;;;;;;4990288;28;20220;-93
2022/10/09 02:46:57;;;;;;;8.20;3.83;;;8.70;1.00;;;;;;4992336;28;20239;-89
2022/10/09 02:49:24;;;;;;;6.43;3.70;;;8.70;1.00;;;;;;4995767;28;20216;-91
2022/10/09 02:51:51;;;;;;;5.70;3.53;;;8.80;1.00;;;;;;5000337;28;20535;-92
2022/10/09 02:54:18;;;;;;;3.60;2.87;;;8.80;99.90;;;;;;4983275;28;20280;-91
2022/10/09 02:56:45;;;;;;;5.63;3.63;;;8.70;1.00;;;;;;4988076;28;20239;-91
2022/10/09 02:59:11;;;;;;;6.73;3.10;;;8.70;99.90;;;;;;4993453;28;20194;-90
2022/10/09 03:01:38;;;;;;;7.80;4.00;;;8.70;1.00;;;;;;5008171;28;20213;-88
2022/10/09 03:04:05;;;;;;;5.83;3.23;;;8.60;1.00;;;;;;4993485;28;20203;-92
2022/10/09 03:06:33;;;;;;;5.77;3.33;;;8.60;99.90;;;;;;4998339;28;20680;-92
2022/10/09 03:09:00;;;;;;;7.83;3.83;;;8.60;99.90;;;;;;4996291;28;20216;-92
2022/10/09 03:11:27;;;;;;;5.73;3.77;;;8.60;1.00;;;;;;4997917;28;20384;-92
2022/10/09 03:13:54;;;;;;;8.70;3.03;;;8.60;99.90;;;;;;5006046;28;20294;-91
2022/10/09 03:16:23;;;;;;;9.57;3.70;;;8.60;11.00;;;;;;4989802;28;20337;-90
2022/10/09 03:18:51;;;;;;;8.17;4.40;;;8.50;99.90;;;;;;4994352;28;20203;-95
2022/10/09 03:21:21;;;;;;;5.20;3.83;;;8.50;1.00;;;;;;4993930;28;20200;-92
2022/10/09 03:23:48;;;;;;;7.80;3.60;;;8.50;99.90;;;;;;4991155;28;20215;-91
2022/10/09 03:26:18;;;;;;;7.13;3.97;;;8.50;99.90;;;;;;4993960;28;20225;-92
2022/10/09 03:28:47;;;;;;;7.07;3.70;;;8.60;1.00;;;;;;5008062;28;20238;-91
2022/10/09 03:31:15;;;;;;;6.40;3.47;;;8.50;1.00;;;;;;5006645;28;20196;-91
2022/10/09 03:34:02;;;;;;;8.50;3.80;;;8.50;99.90;;;;;;4994887;28;20215;-92
2022/10/09 03:36:29;;;;;;;7.53;3.60;;;8.50;99.90;;;;;;5011819;28;20739;-90
2022/10/09 03:38:56;;;;;;;10.87;3.80;;;8.50;1.00;;;;;;4995577;28;20243;-92
2022/10/09 03:41:23;;;;;;;8.43;4.10;;;8.50;1.00;;;;;;5005931;28;20216;-91
2022/10/09 03:43:49;;;;;;;5.17;3.60;;;8.40;1.00;;;;;;4994341;28;20285;-88
2022/10/09 03:46:16;;;;;;;6.03;3.90;;;8.40;1.00;;;;;;4995634;28;20236;-92
2022/10/09 03:48:44;;;;;;;8.17;3.77;;;8.50;99.90;;;;;;4997686;28;20683;-91
2022/10/09 03:51:11;;;;;;;8.63;3.90;;;8.40;1.00;;;;;;4994111;28;20661;-93
2022/10/09 03:53:38;;;;;;;4.27;3.07;;;8.40;99.90;;;;;;4996554;28;20688;-92
2022/10/09 03:56:05;;;;;;;7.67;3.70;;;8.40;1.00;;;;;;4990717;28;20203;-90
2022/10/09 03:58:31;;;;;;;6.67;3.90;;;8.40;1.00;;;;;;4991294;28;20738;-92
2022/10/09 04:00:58;;;;;;;6.13;3.43;;;8.30;1.00;;;;;;4993481;28;20254;-92
2022/10/09 04:03:26;;;;;;;6.20;3.43;;;8.30;1.00;;;;;;5003467;28;20218;-90
2022/10/09 04:05:53;;;;;;;6.03;3.50;;;8.30;1.00;;;;;;4996771;28;20249;-93
2022/10/09 04:08:20;;;;;;;6.30;3.10;;;8.30;99.90;;;;;;4999394;28;20741;-89
2022/10/09 04:10:46;;;;;;;7.27;3.63;;;8.30;99.90;;;;;;4991204;28;20211;-92
2022/10/09 04:13:13;;;;;;;6.20;3.73;;;8.30;1.00;;;;;;4999011;28;20267;-92
2022/10/09 04:15:49;;;;;;;7.60;4.03;;;8.20;99.90;;;;;;4987184;28;20579;-91
2022/10/09 04:18:15;;;;;;;6.80;4.03;;;8.20;99.90;;;;;;4993986;28;20226;-92
2022/10/09 04:20:53;;;;;;;6.07;3.63;;;8.20;1.00;;;;;;4993437;28;20213;-92
2022/10/09 04:23:23;;;;;;;6.43;3.37;;;8.30;99.90;;;;;;4989765;28;20209;-91
2022/10/09 04:25:58;;;;;;;6.70;3.27;;;8.30;1.00;;;;;;4996457;28;20198;-91
2022/10/09 04:28:26;;;;;;;5.90;3.70;;;8.30;99.90;;;;;;4996627;28;20214;-92
2022/10/09 04:30:53;;;;;;;5.37;2.80;;;8.20;99.90;;;;;;4993210;28;20233;-92
2022/10/09 04:33:20;;;;;;;8.20;3.10;;;8.20;1.00;;;;;;4991840;28;20203;-94
2022/10/09 04:35:50;;;;;;;8.27;3.80;;;8.20;99.90;;;;;;5001450;28;20213;-89
2022/10/09 04:38:18;;;;;;;5.93;3.80;;;8.20;1.00;;;;;;4990058;28;20322;-92
2022/10/09 04:40:54;;;;;;;6.63;3.50;;;8.10;1.00;;;;;;4992425;28;20234;-92
2022/10/09 04:43:21;;;;;;;8.53;3.63;;;8.10;99.90;;;;;;5009890;28;20227;-92
2022/10/09 04:45:48;;;;;;;8.53;3.80;;;8.10;1.00;;;;;;5000293;28;20210;-93
2022/10/09 04:48:15;;;;;;;4.43;3.00;;;8.10;1.00;;;;;;4995265;28;20726;-91
2022/10/09 04:50:41;;;;;;;5.83;3.90;;;8.10;1.00;;;;;;4995456;28;20218;-91
2022/10/09 04:53:08;;;;;;;5.80;3.10;;;8.10;99.90;;;;;;4991138;28;20202;-92
2022/10/09 04:55:42;;;;;;;9.27;3.70;;;8.10;1.00;;;;;;4993181;28;20208;-94
2022/10/09 04:58:11;;;;;;;6.00;3.50;;;8.00;1.00;;;;;;4995037;28;20212;-92
2022/10/09 05:00:43;;;;;;;5.70;3.73;;;7.90;1.00;;;;;;5001693;28;20279;-92
2022/10/09 05:03:11;;;;;;;10.57;4.10;;;7.90;1.00;;;;;;4996615;28;20206;-91
2022/10/09 05:05:38;;;;;;;8.03;4.10;;;7.90;99.90;;;;;;4988171;28;20298;-93
2022/10/09 05:08:05;;;;;;;7.80;3.87;;;7.90;1.00;;;;;;4987786;28;20209;-92
2022/10/09 05:10:32;;;;;;;9.20;3.53;;;8.00;1.00;;;;;;4993665;28;20235;-91
2022/10/09 05:12:59;;;;;;;5.43;3.40;;;8.00;1.00;;;;;;5002133;28;20688;-91
2022/10/09 05:15:26;;;;;;;6.20;3.47;;;8.00;1.00;;;;;;4990925;28;20208;-91
2022/10/09 05:17:53;;;;;;;6.70;3.63;;;8.00;99.90;;;;;;5008963;28;20199;-93
2022/10/09 05:20:20;;;;;;;4.67;3.37;;;7.90;1.00;;;;;;4991578;28;20210;-90
2022/10/09 05:22:47;;;;;;;7.50;3.43;;;7.90;1.00;;;;;;4985860;28;20227;-88
2022/10/09 05:25:14;;;;;;;5.57;3.17;;;7.80;1.00;;;;;;4993137;28;20234;-88
2022/10/09 05:27:41;;;;;;;7.43;3.67;;;7.80;23.00;;;;;;4989788;28;20213;-84
2022/10/09 05:30:09;;;;;;;6.80;3.50;;;7.80;1.00;;;;;;4996113;28;20232;-93
2022/10/09 05:32:35;;;;;;;6.60;4.00;;;7.80;1.00;;;;;;4994011;28;20225;-93
2022/10/09 05:35:03;;;;;;;8.43;3.63;;;7.80;1.00;;;;;;5003677;28;20220;-90
2022/10/09 05:37:30;;;;;;;6.57;3.40;;;7.80;1.00;;;;;;4990853;28;20295;-92
2022/10/09 05:39:56;;;;;;;7.50;3.93;;;7.80;1.00;;;;;;4989833;28;20344;-93
2022/10/09 05:42:23;;;;;;;7.73;4.00;;;7.80;55.20;;;;;;4996191;28;20295;-92
2022/10/09 05:44:50;;;;;;;5.53;3.67;;;7.80;99.90;;;;;;4994138;28;20210;-93
2022/10/09 05:47:18;;;;;;;5.40;3.80;;;7.80;97.70;;;;;;4992835;28;20294;-93
2022/10/09 05:49:45;;;;;;;7.53;3.60;;;7.80;1.00;;;;;;4992551;28;20224;-92
2022/10/09 05:52:12;;;;;;;4.60;3.67;;;7.70;1.00;;;;;;5010007;28;20233;-93
2022/10/09 05:54:40;;;;;;;8.50;3.80;;;7.70;1.00;;;;;;4994912;28;20225;-91
2022/10/09 05:57:08;;;;;;;8.60;4.37;;;7.70;1.00;;;;;;4992158;28;20646;-92
2022/10/09 05:59:35;;;;;;;7.67;3.90;;;7.70;1.00;;;;;;4995867;28;20199;-92
2022/10/09 06:02:01;;;;;;;7.20;4.07;;;7.60;1.00;;;;;;5006085;28;20202;-93
2022/10/09 06:04:28;;;;;;;6.83;4.37;;;7.70;1.00;;;;;;4994999;28;20272;-93
2022/10/09 06:06:55;;;;;;;7.00;3.97;;;7.60;1.00;;;;;;4991570;28;20261;-91
2022/10/09 06:09:24;;;;;;;9.40;4.30;;;7.60;1.00;;;;;;4990885;28;20222;-93
2022/10/09 06:11:53;;;;;;;6.17;4.40;;;7.50;1.00;;;;;;4995138;28;20208;-92
2022/10/09 06:14:23;;;;;;;7.23;3.80;;;7.60;1.00;;;;;;4993821;28;20200;-91
2022/10/09 06:16:50;;;;;;;7.10;3.80;;;7.60;1.00;;;;;;4994704;28;20285;-92
2022/10/09 06:19:18;;;;;;;6.53;3.50;;;7.70;99.90;;;;;;4995691;28;20246;-92
2022/10/09 06:21:46;;;;;;;7.97;4.23;;;7.70;99.90;;;;;;4995150;28;20199;-93
2022/10/09 06:24:19;;;;;;;9.43;4.20;;;7.70;99.90;;;;;;4995542;28;20249;-92
2022/10/09 06:26:53;;;;;;;7.13;4.00;;;7.70;1.00;;;;;;4995484;28;20222;-90
2022/10/09 06:29:20;;;;;;;5.40;3.97;;;7.80;1.00;;;;;;4978771;28;20237;-90
2022/10/09 06:31:47;;;;;;;8.23;4.40;;;7.70;99.90;;;;;;4985916;28;20210;-91
2022/10/09 06:34:14;;;;;;;5.80;3.93;;;7.70;75.30;;;;;;4975676;28;20285;-90
2022/10/09 06:36:41;;;;;;;7.77;4.07;;;7.80;1.00;;;;;;4989164;28;20281;-92
2022/10/09 06:39:09;;;;;;;6.40;4.43;;;7.80;99.90;;;;;;4993241;28;20240;-91
2022/10/09 06:41:36;;;;;;;9.63;4.60;;;7.80;1.00;;;;;;5010224;28;20204;-94
2022/10/09 06:44:05;;;;;;;7.13;4.37;;;7.80;1.00;;;;;;5005402;28;20201;-90
2022/10/09 06:46:36;;;;;;;7.60;4.43;;;7.90;99.90;;;;;;4995129;28;20321;-93
2022/10/09 06:49:05;;;;;;;5.50;3.87;;;7.90;99.90;;;;;;4991913;28;20234;-93
2022/10/09 06:51:33;;;;;;;7.10;4.27;;;7.90;1.00;;;;;;4995168;28;20206;-92
2022/10/09 06:54:02;;;;;;;8.03;4.10;;;8.00;99.90;;;;;;4994205;28;20203;-92
2022/10/09 06:56:30;;;;;;;7.57;4.27;;;8.00;99.90;;;;;;5004522;28;20209;-90
2022/10/09 06:59:02;;;;;;;7.63;4.90;;;8.10;99.90;;;;;;4990756;28;20259;-85
2022/10/09 07:01:30;;;;;;;5.13;4.50;;;8.10;99.90;;;;;;4992220;28;20218;-87
2022/10/09 07:04:01;;;;;;;11.20;4.93;;;8.20;1.00;;;;;;4989968;28;20202;-89
2022/10/09 07:06:30;;;;;;;8.97;5.00;;;8.40;1.00;;;;;;4991393;28;20229;-93
2022/10/09 07:09:01;;;;;;;11.37;5.33;;;8.60;1.00;;;;;;4989046;28;20224;-92
2022/10/09 07:11:34;;;;;;;6.50;4.30;;;8.70;1.00;;;;;;4985461;28;20315;-85
2022/10/09 07:14:05;;;;;;;5.90;4.50;;;8.80;1.00;;;;;;4985668;28;20295;-80
2022/10/09 07:16:35;;;;;;;10.77;5.13;;;8.90;17.50;;;;;;4973754;28;20206;-81
2022/10/09 07:19:06;;;;;;;7.63;4.73;;;9.00;1.00;;;;;;4627126;28;10000304;-80
2022/10/09 07:21:34;;;;;;;5.60;4.27;;;9.20;99.90;;;;;;4987571;28;20920;-80
2022/10/09 07:24:02;;;;;;;9.03;4.40;;;9.30;99.90;;;;;;4978624;28;20750;-79
2022/10/09 07:26:33;;;;;;;12.13;5.43;;;9.40;1.00;;;;;;4975727;28;20217;-80
2022/10/09 07:29:01;;;;;;;9.50;4.67;;;9.60;99.90;;;;;;4979849;28;21147;-80
2022/10/09 07:31:28;;;;;;;11.50;5.27;;;9.60;50.00;;;;;;4981506;28;20428;-80
2022/10/09 07:33:55;;;;;;;8.73;4.53;;;9.60;99.90;;;;;;4979351;28;20206;-82
2022/10/09 07:36:23;;;;;;;9.30;5.00;;;9.60;99.90;;;;;;4984926;28;20212;-80
2022/10/09 07:38:51;;;;;;;6.97;5.07;;;9.70;1.00;;;;;;4983727;28;20318;-81
2022/10/09 07:41:20;;;;;;;6.43;4.50;;;9.80;1.00;;;;;;4984285;28;20256;-81
2022/10/09 07:43:47;;;;;;;12.40;5.43;;;9.90;1.00;;;;;;4985938;28;20226;-81
2022/10/09 07:46:16;;;;;;;8.83;4.77;;;10.00;1.00;;;;;;4986424;28;20205;-81
2022/10/09 07:48:43;;;;;;;8.00;5.43;;;10.00;99.90;;;;;;4983182;28;20210;-81
2022/10/09 07:51:25;;;;;;;8.50;4.77;;;10.10;1.00;;;;;;4985781;28;20215;-80
2022/10/09 07:53:52;;;;;;;8.70;5.13;;;10.40;1.00;;;;;;4999864;28;20212;-80
2022/10/09 07:56:31;;;;;;;6.60;4.13;;;10.50;9.10;;;;;;4988464;28;20207;-80
2022/10/09 07:59:01;;;;;;;9.47;4.47;;;10.40;99.90;;;;;;4987082;28;20227;-81
2022/10/09 08:01:29;;;;;;;7.20;4.30;;;10.50;1.00;;;;;;4986066;28;21152;-81
2022/10/09 08:03:57;;;;;;;6.30;4.10;;;10.70;1.00;;;;;;4984485;28;20287;-81
2022/10/09 08:06:24;;;;;;;9.27;4.07;;;11.00;99.90;;;;;;4985459;28;20275;-81
2022/10/09 08:08:53;;;;;;;7.87;4.30;;;11.10;1.00;;;;;;4987549;28;20220;-81
2022/10/09 08:11:22;;;;;;;6.13;3.90;;;11.40;1.00;;;;;;4982621;28;20282;-81
2022/10/09 08:13:49;;;;;;;6.63;4.50;;;11.80;1.00;;;;;;4985391;28;20204;-81
2022/10/09 08:16:17;;;;;;;7.00;3.93;;;12.20;99.90;;;;;;4986920;28;20215;-80
2022/10/09 08:18:44;;;;;;;10.00;4.80;;;12.40;99.90;;;;;;4985094;28;20213;-80
2022/10/09 08:21:15;;;;;;;5.10;3.57;;;12.70;1.00;;;;;;5001570;28;20576;-81
2022/10/09 08:23:42;;;;;;;8.00;4.03;;;12.80;1.00;;;;;;4984253;28;20218;-79
2022/10/09 08:26:14;;;;;;;8.60;4.50;;;13.10;1.00;;;;;;4985998;28;20203;-79
2022/10/09 08:28:41;;;;;;;7.37;3.67;;;13.30;99.90;;;;;;4996971;28;20202;-79
2022/10/09 08:31:13;;;;;;;6.47;3.77;;;13.40;99.90;;;;;;4982692;28;20250;-80
2022/10/09 08:33:41;;;;;;;7.83;3.43;;;13.50;99.90;;;;;;4983575;28;20568;-79
2022/10/09 08:36:10;;;;;;;8.70;4.17;;;13.80;99.90;;;;;;4981787;28;20281;-80
2022/10/09 08:38:37;;;;;;;8.17;3.80;;;13.80;1.00;;;;;;4983984;28;20231;-81
2022/10/09 08:41:31;;;;;;;7.37;4.57;;;14.00;99.90;;;;;;4983783;28;20213;-80
2022/10/09 08:44:08;;;;;;;9.23;3.90;;;14.20;1.00;;;;;;4986758;28;20202;-81
2022/10/09 08:47:17;;;;;;;12.53;4.10;;;14.50;1.00;;;;;;4993344;28;20259;-80
2022/10/09 08:50:07;;;;;;;5.17;4.17;;;14.50;1.00;;;;;;4990118;28;20577;-80
2022/10/09 08:52:54;;;;;;;7.87;5.80;;;14.60;1.00;;;;;;4980170;28;20219;-81
2022/10/09 08:55:31;;;;;;;11.17;4.67;;;14.20;99.90;;;;;;4982170;28;20203;-80
2022/10/09 08:58:04;;;;;;;10.40;5.57;;;14.50;1.00;;;;;;4981979;28;20204;-80
2022/10/09 09:00:58;;;;;;;7.33;4.43;;;14.70;1.00;;;;;;4980842;28;20204;-81
2022/10/09 09:03:43;;;;;;;7.97;4.37;;;14.50;1.00;;;;;;4977512;28;20211;-81
2022/10/09 09:06:22;;;;;;;6.07;4.73;;;14.70;1.00;;;;;;4976705;28;20219;-80
2022/10/09 09:09:10;;;;;;;6.67;3.87;;;14.80;1.00;;;;;;4981925;28;20287;-81
2022/10/09 09:11:59;;;;;;;8.63;4.07;;;14.70;1.00;;;;;;4981833;28;20224;-80
2022/10/09 09:14:47;;;;;;;10.13;4.50;;;14.70;1.00;;;;;;4980991;28;20199;-79
2022/10/09 09:17:29;;;;;;;8.50;3.90;;;14.80;1.00;;;;;;4978525;28;20199;-79
2022/10/09 09:20:08;;;;;;;8.27;4.70;;;14.60;1.00;;;;;;4979469;28;20212;-80
2022/10/09 09:22:37;;;;;;;9.13;4.43;;;14.70;1.00;;;;;;4984227;28;20741;-80
2022/10/09 09:25:18;;;;;;;7.83;4.27;;;14.70;1.00;;;;;;4985609;28;20288;-79
2022/10/09 09:27:46;;;;;;;8.70;4.90;;;14.50;1.00;;;;;;4980495;28;20203;-80
2022/10/09 09:30:39;;;;;;;5.47;3.70;;;14.80;1.00;;;;;;4988125;28;22098;-79
2022/10/09 09:33:20;;;;;;;8.17;4.13;;;14.70;1.00;;;;;;4986462;28;20215;-79
2022/10/09 09:36:15;;;;;;;10.63;4.17;;;14.50;1.00;;;;;;4985775;28;20218;-79
2022/10/09 09:38:42;;;;;;;6.70;4.00;;;14.60;1.00;;;;;;4999306;28;20681;-80
2022/10/09 09:41:29;;;;;;;7.80;3.83;;;14.80;1.00;;;;;;4974733;28;20561;-80
2022/10/09 09:43:55;;;;;;;6.47;3.77;;;14.90;1.00;;;;;;4982259;28;20265;-80
2022/10/09 09:46:27;;;;;;;6.17;3.70;;;15.10;1.00;;;;;;4984525;28;20296;-79
2022/10/09 09:48:56;;;;;;;8.53;3.90;;;15.00;1.00;;;;;;4980096;28;20200;-80
2022/10/09 09:51:31;;;;;;;6.40;3.60;;;15.00;1.00;;;;;;4980891;28;20222;-79
2022/10/09 09:54:02;;;;;;;6.43;4.00;;;15.30;1.00;;;;;;4986475;28;20213;-80
2022/10/09 09:56:36;;;;;;;6.17;3.80;;;15.40;1.00;;;;;;4985262;28;20207;-80
2022/10/09 09:59:28;;;;;;;8.00;4.17;;;15.60;1.00;;;;;;4989346;28;20206;-79
2022/10/09 10:02:11;;;;;;;8.17;3.47;;;15.40;99.90;;;;;;4983983;28;20647;-79
2022/10/09 10:04:58;;;;;;;5.23;3.47;;;15.40;1.00;;;;;;4981960;28;20286;-80
2022/10/09 10:07:28;;;;;;;5.90;3.37;;;15.20;1.00;;;;;;4983031;28;20201;-80
2022/10/09 10:10:22;;;;;;;7.53;3.10;;;15.10;1.00;;;;;;4983313;28;20269;-80
2022/10/09 10:12:51;;;;;;;6.50;3.47;;;15.00;1.00;;;;;;4987962;28;20450;-79
2022/10/09 10:15:27;;;;;;;5.57;3.57;;;15.20;1.00;;;;;;4980516;28;20203;-79
2022/10/09 10:18:11;;;;;;;8.03;3.47;;;15.30;1.00;;;;;;4995750;28;20197;-78
2022/10/09 10:20:44;;;;;;;8.80;2.97;;;15.50;1.00;;;;;;4981773;28;20204;-79
2022/10/09 10:23:36;;;;;;;4.47;3.17;;;15.60;99.90;;;;;;4982465;28;20209;-78
2022/10/09 10:26:20;;;;;;;8.13;3.23;;;15.60;99.90;;;;;;4976339;28;20203;-79
2022/10/09 10:29:12;;;;;;;6.97;2.90;;;15.60;99.90;;;;;;4980975;28;20541;-78
2022/10/09 10:32:04;;;;;;;6.10;2.50;;;15.50;99.90;;;;;;4979846;28;20572;-80
2022/10/09 10:34:57;;;;;;;6.87;2.80;;;15.60;99.90;;;;;;4981079;28;20202;-78
2022/10/09 10:37:52;;;;;;;9.67;3.13;;;15.60;99.90;;;;;;4981956;28;20495;-80
2022/10/09 10:40:30;;;;;;;6.93;3.07;;;15.60;99.90;;;;;;4979411;28;20240;-80
2022/10/09 10:43:14;;;;;;;4.17;2.67;;;15.60;99.90;;;;;;4982572;28;20291;-79
2022/10/09 10:45:53;;;;;;;6.17;3.07;;;15.70;99.90;;;;;;4982013;28;20205;-80
2022/10/09 10:48:32;;;;;;;6.27;3.47;;;15.70;99.90;;;;;;4980726;28;20193;-81
2022/10/09 10:51:02;;;;;;;5.70;3.40;;;15.80;99.90;;;;;;4980902;28;20705;-80
2022/10/09 10:53:47;;;;;;;4.80;3.00;;;15.80;99.90;;;;;;4991795;28;20608;-80
2022/10/09 10:56:47;;;;;;;5.03;2.73;;;16.00;99.90;;;;;;4991974;28;20206;-82
2022/10/09 10:59:41;;;;;;;13.23;5.40;;;15.90;99.90;;;;;;4977514;28;20665;-81
2022/10/09 11:02:08;;;;;;;4.53;2.67;;;15.90;99.90;;;;;;4980843;28;20209;-79
2022/10/09 11:04:56;;;;;;;6.07;2.90;;;16.00;99.90;;;;;;4980863;28;20214;-80
2022/10/09 11:07:32;;;;;;;4.63;2.47;;;16.10;99.90;;;;;;4976352;28;20247;-81
2022/10/09 11:10:16;;;;;;;5.13;2.77;;;16.30;99.90;;;;;;4998277;28;20299;-81
2022/10/09 11:12:48;;;;;;;4.27;2.33;;;16.40;94.70;;;;;;4988987;28;20224;-81
2022/10/09 11:15:36;;;;;;;6.53;2.70;;;16.30;26.30;;;;;;4985201;28;20206;-81
2022/10/09 11:18:28;;;;;;;7.13;2.43;;;16.40;1.00;;;;;;4984609;28;20205;-81
2022/10/09 11:21:12;;;;;;;5.30;2.50;;;16.50;1.00;;;;;;4988050;28;20199;-81
2022/10/09 11:24:00;;;;;;;5.20;2.77;;;16.60;1.00;;;;;;4985744;28;20201;-81
2022/10/09 11:27:09;;;;;;;3.70;2.30;;;16.60;1.00;;;;;;4978653;28;20206;-81
2022/10/09 11:29:53;;;;;;;4.67;3.03;;;16.60;1.00;;;;;;4982969;28;20291;-80
2022/10/09 11:32:54;;;;;;;5.27;2.70;;;16.70;1.00;;;;;;4986696;28;20220;-79
2022/10/09 11:35:25;;;;;;;4.93;3.50;;;16.80;1.00;;;;;;4988164;28;20201;-81
2022/10/09 11:38:02;;;;;;;3.63;2.20;;;16.70;1.00;;;;;;4977249;28;20229;-80
2022/10/09 11:40:38;;;;;;;10.23;2.90;;;16.80;1.00;;;;;;4986591;28;20237;-80
2022/10/09 11:43:17;;;;;;;2.73;2.40;;;17.00;1.00;;;;;;4985894;28;20202;-81
2022/10/09 11:45:55;;;;;;;4.60;2.27;;;17.10;1.00;;;;;;4985840;28;20217;-81
2022/10/09 11:49:00;;;;;;;4.80;2.50;;;17.40;1.00;;;;;;4981400;28;20231;-81
2022/10/09 11:51:47;;;;;;;5.67;2.00;;;17.60;1.00;;;;;;4986493;28;20327;-79
2022/10/09 11:54:21;;;;;;;3.73;1.97;;;18.10;1.00;;;;;;4980744;28;20199;-84
2022/10/09 11:56:55;;;;;;;4.20;2.27;;;18.70;1.00;;;;;;4997475;28;20203;-83
2022/10/09 11:59:32;;;;;;;5.53;2.43;;;19.20;1.00;;;;;;4978150;28;20220;-82
2022/10/09 12:02:32;;;;;;;6.00;1.97;;;19.60;1.00;;;;;;4979300;28;20205;-82
2022/10/09 12:05:00;;;;;;;5.53;2.00;;;19.60;1.00;;;;;;4984033;28;20213;-81
2022/10/09 12:07:35;;;;;;;5.13;2.20;;;19.60;1.00;;;;;;4982637;28;20207;-82
2022/10/09 12:10:27;;;;;;;6.87;2.67;;;19.60;1.00;;;;;;4977381;28;20482;-80
2022/10/09 12:13:06;;;;;;;6.03;2.70;;;19.80;1.00;;;;;;4980493;28;21401;-79
2022/10/09 12:15:44;;;;;;;5.70;2.30;;;19.90;1.00;;;;;;4982769;28;20210;-79
2022/10/09 12:18:22;;;;;;;3.13;2.30;;;20.10;1.00;;;;;;4979184;28;20190;-79
2022/10/09 12:20:50;;;;;;;4.90;2.40;;;20.40;1.00;;;;;;4977468;28;20236;-78
2022/10/09 12:23:22;;;;;;;5.60;2.23;;;20.10;1.00;;;;;;4987916;28;20286;-79
2022/10/09 12:25:55;;;;;;;5.10;2.50;;;20.70;1.00;;;;;;4988543;28;20631;-79
2022/10/09 12:28:41;;;;;;;5.80;2.30;;;21.00;1.00;;;;;;4988459;28;20309;-79
2022/10/09 12:31:22;;;;;;;4.07;2.10;;;21.20;1.00;;;;;;4981823;28;20229;-78
2022/10/09 12:34:01;;;;;;;4.57;2.20;;;20.70;1.00;;;;;;4983330;28;20288;-78
2022/10/09 12:36:30;;;;;;;6.57;2.63;;;21.00;1.00;;;;;;4987091;28;20204;-77
2022/10/09 12:39:10;;;;;;;4.47;2.80;;;21.00;1.00;;;;;;4987283;28;20697;-78
2022/10/09 12:41:37;;;;;;;6.73;2.20;;;20.90;1.00;;;;;;4983385;28;20634;-77
2022/10/09 12:44:13;;;;;;;4.10;2.00;;;21.00;1.00;;;;;;4987945;28;20667;-81
2022/10/09 12:46:41;;;;;;;4.27;2.03;;;20.60;1.00;;;;;;4989496;28;20236;-84
2022/10/09 12:49:23;;;;;;;4.80;2.13;;;20.20;1.00;;;;;;5003385;28;20209;-83
2022/10/09 12:51:56;;;;;;;5.80;2.10;;;20.30;1.00;;;;;;4983236;28;20217;-83
2022/10/09 12:54:25;;;;;;;4.33;1.97;;;20.70;1.00;;;;;;4985364;28;20218;-83
2022/10/09 12:56:55;;;;;;;3.77;2.20;;;20.70;1.00;;;;;;4988517;28;20237;-85
2022/10/09 12:59:24;;;;;;;6.10;2.60;;;20.80;1.00;;;;;;4985598;28;20309;-85
2022/10/09 13:01:56;;;;;;;5.20;1.73;;;20.70;1.00;;;;;;4991124;28;20242;-86
2022/10/09 13:04:28;;;;;;;4.20;1.97;;;20.80;1.00;;;;;;4989268;28;20213;-84
2022/10/09 13:06:56;;;;;;;6.43;1.90;;;20.80;1.00;;;;;;4989224;28;20313;-82
2022/10/09 13:09:27;;;;;;;3.27;2.00;;;20.50;1.00;;;;;;4985171;28;20219;-83
2022/10/09 13:12:00;;;;;;;3.70;1.97;;;20.40;1.00;;;;;;4987106;28;20815;-83
2022/10/09 13:14:32;;;;;;;3.27;1.83;;;20.50;1.00;;;;;;4983818;28;20198;-79
2022/10/09 13:17:00;;;;;;;4.63;1.73;;;20.50;1.00;;;;;;4984757;28;22372;-81
2022/10/09 13:19:34;;;;;;;5.23;2.20;;;20.60;1.00;;;;;;4997612;28;20346;-80
2022/10/09 13:22:12;;;;;;;3.37;2.03;;;20.30;1.00;;;;;;4985366;28;20560;-80
2022/10/09 13:24:39;;;;;;;3.57;1.50;;;20.00;1.00;;;;;;4986709;28;20733;-80
2022/10/09 13:27:09;;;;;;;4.33;2.07;;;20.00;1.00;;;;;;4986685;28;20253;-79
2022/10/09 13:29:37;;;;;;;5.87;1.93;;;20.30;1.00;;;;;;4970310;28;20289;-80